sensor_id;sensor_type;location;lat;lon;timestamp;P1;durP1;ratioP1;P2;durP2;ratioP2
26191;SDS011;13935;55.672;37.764;2023-08-07T00:00:52;9.75;;;7.60;;
26191;SDS011;13935;55.672;37.764;2023-08-07T00:01:54;11.05;;;7.57;;
26191;SDS011;13935;55.672;37.764;2023-08-07T00:02:57;15.05;;;9.98;;
26191;SDS011;13935;55.672;37.764;2023-08-07T00:03:59;13.25;;;8.40;;
26191;SDS011;13935;55.672;37.764;2023-08-07T00:05:02;11.75;;;8.75;;
26191;SDS011;13935;55.672;37.764;2023-08-07T00:06:04;16.23;;;8.30;;
26191;SDS011;13935;55.672;37.764;2023-08-07T00:07:06;15.35;;;8.30;;
26191;SDS011;13935;55.672;37.764;2023-08-07T00:08:08;10.85;;;7.75;;
26191;SDS011;13935;55.672;37.764;2023-08-07T00:09:10;8.93;;;7.60;;
26191;SDS011;13935;55.672;37.764;2023-08-07T00:10:13;11.23;;;8.48;;
26191;SDS011;13935;55.672;37.764;2023-08-07T00:11:15;10.63;;;8.40;;
26191;SDS011;13935;55.672;37.764;2023-08-07T00:12:17;10.98;;;8.10;;
26191;SDS011;13935;55.672;37.764;2023-08-07T00:13:19;11.10;;;8.15;;
26191;SDS011;13935;55.672;37.764;2023-08-07T00:14:22;10.75;;;8.18;;
26191;SDS011;13935;55.672;37.764;2023-08-07T00:15:25;12.82;;;9.05;;
26191;SDS011;13935;55.672;37.764;2023-08-07T00:16:27;13.00;;;8.73;;
26191;SDS011;13935;55.672;37.764;2023-08-07T00:17:29;11.80;;;8.75;;
26191;SDS011;13935;55.672;37.764;2023-08-07T00:18:31;12.13;;;9.48;;
26191;SDS011;13935;55.672;37.764;2023-08-07T00:19:33;12.10;;;9.23;;
26191;SDS011;13935;55.672;37.764;2023-08-07T00:20:36;12.18;;;8.60;;
26191;SDS011;13935;55.672;37.764;2023-08-07T00:21:38;11.88;;;8.50;;
26191;SDS011;13935;55.672;37.764;2023-08-07T00:22:40;12.75;;;8.68;;
26191;SDS011;13935;55.672;37.764;2023-08-07T00:23:42;10.48;;;8.68;;
26191;SDS011;13935;55.672;37.764;2023-08-07T00:24:44;11.32;;;8.07;;
26191;SDS011;13935;55.672;37.764;2023-08-07T00:25:46;12.23;;;8.23;;
26191;SDS011;13935;55.672;37.764;2023-08-07T00:26:48;10.63;;;9.02;;
26191;SDS011;13935;55.672;37.764;2023-08-07T00:27:50;12.45;;;8.30;;
26191;SDS011;13935;55.672;37.764;2023-08-07T00:28:52;15.45;;;8.48;;
26191;SDS011;13935;55.672;37.764;2023-08-07T00:29:55;12.20;;;8.57;;
26191;SDS011;13935;55.672;37.764;2023-08-07T00:30:57;13.40;;;8.38;;
26191;SDS011;13935;55.672;37.764;2023-08-07T00:31:59;12.68;;;8.10;;
26191;SDS011;13935;55.672;37.764;2023-08-07T00:33:01;10.68;;;8.75;;
26191;SDS011;13935;55.672;37.764;2023-08-07T00:34:04;12.00;;;8.35;;
26191;SDS011;13935;55.672;37.764;2023-08-07T00:35:06;14.75;;;8.90;;
26191;SDS011;13935;55.672;37.764;2023-08-07T00:36:09;10.90;;;8.95;;
26191;SDS011;13935;55.672;37.764;2023-08-07T00:37:12;10.20;;;8.38;;
26191;SDS011;13935;55.672;37.764;2023-08-07T00:38:14;11.82;;;7.97;;
26191;SDS011;13935;55.672;37.764;2023-08-07T00:39:18;14.10;;;8.05;;
26191;SDS011;13935;55.672;37.764;2023-08-07T00:40:20;14.35;;;8.77;;
26191;SDS011;13935;55.672;37.764;2023-08-07T00:41:22;10.27;;;8.00;;
26191;SDS011;13935;55.672;37.764;2023-08-07T00:42:25;12.63;;;8.25;;
26191;SDS011;13935;55.672;37.764;2023-08-07T00:43:28;11.65;;;8.48;;
26191;SDS011;13935;55.672;37.764;2023-08-07T00:44:32;11.13;;;8.75;;
26191;SDS011;13935;55.672;37.764;2023-08-07T00:45:36;12.65;;;8.85;;
26191;SDS011;13935;55.672;37.764;2023-08-07T00:46:43;8.85;;;7.93;;
26191;SDS011;13935;55.672;37.764;2023-08-07T00:47:45;12.35;;;8.18;;
26191;SDS011;13935;55.672;37.764;2023-08-07T00:48:47;15.52;;;8.75;;
26191;SDS011;13935;55.672;37.764;2023-08-07T00:49:50;11.05;;;8.48;;
26191;SDS011;13935;55.672;37.764;2023-08-07T00:50:52;11.15;;;8.65;;
26191;SDS011;13935;55.672;37.764;2023-08-07T00:51:55;10.60;;;8.10;;
26191;SDS011;13935;55.672;37.764;2023-08-07T00:52:57;13.55;;;8.95;;
26191;SDS011;13935;55.672;37.764;2023-08-07T00:53:59;12.35;;;8.48;;
26191;SDS011;13935;55.672;37.764;2023-08-07T00:55:06;14.05;;;8.43;;
26191;SDS011;13935;55.672;37.764;2023-08-07T00:56:09;11.40;;;8.70;;
26191;SDS011;13935;55.672;37.764;2023-08-07T00:57:12;15.80;;;8.50;;
26191;SDS011;13935;55.672;37.764;2023-08-07T00:58:18;9.95;;;8.57;;
26191;SDS011;13935;55.672;37.764;2023-08-07T00:59:21;11.40;;;8.63;;
26191;SDS011;13935;55.672;37.764;2023-08-07T01:00:23;9.95;;;8.13;;
26191;SDS011;13935;55.672;37.764;2023-08-07T01:01:25;10.90;;;7.85;;
26191;SDS011;13935;55.672;37.764;2023-08-07T01:02:27;9.85;;;7.50;;
26191;SDS011;13935;55.672;37.764;2023-08-07T01:03:30;12.02;;;7.63;;
26191;SDS011;13935;55.672;37.764;2023-08-07T01:04:32;11.07;;;8.43;;
26191;SDS011;13935;55.672;37.764;2023-08-07T01:05:34;11.27;;;8.23;;
26191;SDS011;13935;55.672;37.764;2023-08-07T01:06:36;11.48;;;8.10;;
26191;SDS011;13935;55.672;37.764;2023-08-07T01:07:38;12.70;;;8.30;;
26191;SDS011;13935;55.672;37.764;2023-08-07T01:08:40;9.48;;;8.27;;
26191;SDS011;13935;55.672;37.764;2023-08-07T01:09:44;11.50;;;8.70;;
26191;SDS011;13935;55.672;37.764;2023-08-07T01:11:05;12.75;;;8.75;;
26191;SDS011;13935;55.672;37.764;2023-08-07T01:13:29;10.85;;;8.77;;
26191;SDS011;13935;55.672;37.764;2023-08-07T01:14:38;12.00;;;8.75;;
26191;SDS011;13935;55.672;37.764;2023-08-07T01:15:44;9.95;;;8.52;;
26191;SDS011;13935;55.672;37.764;2023-08-07T01:17:07;9.32;;;7.90;;
26191;SDS011;13935;55.672;37.764;2023-08-07T01:18:12;11.40;;;8.65;;
26191;SDS011;13935;55.672;37.764;2023-08-07T01:19:22;11.15;;;8.45;;
26191;SDS011;13935;55.672;37.764;2023-08-07T01:20:43;12.23;;;8.60;;
26191;SDS011;13935;55.672;37.764;2023-08-07T01:21:48;12.35;;;8.77;;
26191;SDS011;13935;55.672;37.764;2023-08-07T01:22:50;11.35;;;8.82;;
26191;SDS011;13935;55.672;37.764;2023-08-07T01:23:52;14.90;;;8.75;;
26191;SDS011;13935;55.672;37.764;2023-08-07T01:24:55;10.63;;;8.32;;
26191;SDS011;13935;55.672;37.764;2023-08-07T01:25:57;11.55;;;7.93;;
26191;SDS011;13935;55.672;37.764;2023-08-07T01:27:35;12.10;;;8.25;;
26191;SDS011;13935;55.672;37.764;2023-08-07T01:28:45;11.63;;;8.48;;
26191;SDS011;13935;55.672;37.764;2023-08-07T01:29:59;12.10;;;8.68;;
26191;SDS011;13935;55.672;37.764;2023-08-07T01:31:21;11.95;;;9.23;;
26191;SDS011;13935;55.672;37.764;2023-08-07T01:32:29;14.70;;;10.75;;
26191;SDS011;13935;55.672;37.764;2023-08-07T01:35:06;10.90;;;8.57;;
26191;SDS011;13935;55.672;37.764;2023-08-07T01:36:10;9.20;;;8.27;;
26191;SDS011;13935;55.672;37.764;2023-08-07T01:37:12;11.32;;;8.98;;
26191;SDS011;13935;55.672;37.764;2023-08-07T01:38:15;15.77;;;9.13;;
26191;SDS011;13935;55.672;37.764;2023-08-07T01:39:18;11.27;;;9.20;;
26191;SDS011;13935;55.672;37.764;2023-08-07T01:40:22;11.07;;;9.85;;
26191;SDS011;13935;55.672;37.764;2023-08-07T01:41:27;12.02;;;9.35;;
26191;SDS011;13935;55.672;37.764;2023-08-07T01:42:30;13.30;;;8.80;;
26191;SDS011;13935;55.672;37.764;2023-08-07T01:43:33;11.40;;;9.02;;
26191;SDS011;13935;55.672;37.764;2023-08-07T01:44:38;11.85;;;9.20;;
26191;SDS011;13935;55.672;37.764;2023-08-07T01:45:40;13.90;;;8.88;;
26191;SDS011;13935;55.672;37.764;2023-08-07T01:46:43;10.18;;;8.90;;
26191;SDS011;13935;55.672;37.764;2023-08-07T01:47:45;12.00;;;8.98;;
26191;SDS011;13935;55.672;37.764;2023-08-07T01:48:47;14.75;;;9.18;;
26191;SDS011;13935;55.672;37.764;2023-08-07T01:49:50;12.25;;;8.85;;
26191;SDS011;13935;55.672;37.764;2023-08-07T01:50:52;11.15;;;8.85;;
26191;SDS011;13935;55.672;37.764;2023-08-07T01:51:55;12.15;;;9.27;;
26191;SDS011;13935;55.672;37.764;2023-08-07T01:52:57;11.27;;;9.40;;
26191;SDS011;13935;55.672;37.764;2023-08-07T01:53:59;14.00;;;9.90;;
26191;SDS011;13935;55.672;37.764;2023-08-07T01:55:01;12.75;;;8.63;;
26191;SDS011;13935;55.672;37.764;2023-08-07T01:56:06;12.80;;;9.48;;
26191;SDS011;13935;55.672;37.764;2023-08-07T01:57:08;11.93;;;9.20;;
26191;SDS011;13935;55.672;37.764;2023-08-07T01:58:13;15.27;;;9.35;;
26191;SDS011;13935;55.672;37.764;2023-08-07T01:59:15;11.70;;;9.23;;
26191;SDS011;13935;55.672;37.764;2023-08-07T02:00:18;14.00;;;9.43;;
26191;SDS011;13935;55.672;37.764;2023-08-07T02:01:21;10.43;;;9.32;;
26191;SDS011;13935;55.672;37.764;2023-08-07T02:02:23;12.02;;;9.23;;
26191;SDS011;13935;55.672;37.764;2023-08-07T02:03:25;14.15;;;9.20;;
26191;SDS011;13935;55.672;37.764;2023-08-07T02:04:27;10.73;;;9.60;;
26191;SDS011;13935;55.672;37.764;2023-08-07T02:05:33;11.02;;;8.68;;
26191;SDS011;13935;55.672;37.764;2023-08-07T02:06:36;11.02;;;9.52;;
26191;SDS011;13935;55.672;37.764;2023-08-07T02:07:38;14.15;;;8.80;;
26191;SDS011;13935;55.672;37.764;2023-08-07T02:08:39;13.35;;;9.35;;
26191;SDS011;13935;55.672;37.764;2023-08-07T02:09:42;14.80;;;9.55;;
26191;SDS011;13935;55.672;37.764;2023-08-07T02:10:44;11.85;;;9.10;;
26191;SDS011;13935;55.672;37.764;2023-08-07T02:11:46;15.90;;;9.60;;
26191;SDS011;13935;55.672;37.764;2023-08-07T02:12:48;13.68;;;9.90;;
26191;SDS011;13935;55.672;37.764;2023-08-07T02:13:50;11.18;;;9.40;;
26191;SDS011;13935;55.672;37.764;2023-08-07T02:14:53;12.88;;;9.48;;
26191;SDS011;13935;55.672;37.764;2023-08-07T02:15:55;14.18;;;9.57;;
26191;SDS011;13935;55.672;37.764;2023-08-07T02:16:57;13.38;;;9.88;;
26191;SDS011;13935;55.672;37.764;2023-08-07T02:17:59;11.25;;;9.45;;
26191;SDS011;13935;55.672;37.764;2023-08-07T02:19:01;13.98;;;9.63;;
26191;SDS011;13935;55.672;37.764;2023-08-07T02:20:23;11.30;;;9.32;;
26191;SDS011;13935;55.672;37.764;2023-08-07T02:21:26;10.60;;;9.05;;
26191;SDS011;13935;55.672;37.764;2023-08-07T02:22:28;11.48;;;9.70;;
26191;SDS011;13935;55.672;37.764;2023-08-07T02:23:30;14.23;;;9.02;;
26191;SDS011;13935;55.672;37.764;2023-08-07T02:24:35;12.73;;;9.48;;
26191;SDS011;13935;55.672;37.764;2023-08-07T02:25:37;11.52;;;9.43;;
26191;SDS011;13935;55.672;37.764;2023-08-07T02:26:39;15.52;;;9.70;;
26191;SDS011;13935;55.672;37.764;2023-08-07T02:27:41;14.15;;;8.90;;
26191;SDS011;13935;55.672;37.764;2023-08-07T02:28:43;13.77;;;9.40;;
26191;SDS011;13935;55.672;37.764;2023-08-07T02:29:45;12.57;;;9.95;;
26191;SDS011;13935;55.672;37.764;2023-08-07T02:30:47;12.52;;;9.30;;
26191;SDS011;13935;55.672;37.764;2023-08-07T02:31:55;13.65;;;8.65;;
26191;SDS011;13935;55.672;37.764;2023-08-07T02:32:57;15.43;;;9.73;;
26191;SDS011;13935;55.672;37.764;2023-08-07T02:34:02;14.00;;;9.63;;
26191;SDS011;13935;55.672;37.764;2023-08-07T02:35:05;13.27;;;9.32;;
26191;SDS011;13935;55.672;37.764;2023-08-07T02:36:07;17.67;;;9.18;;
26191;SDS011;13935;55.672;37.764;2023-08-07T02:37:09;13.02;;;9.32;;
26191;SDS011;13935;55.672;37.764;2023-08-07T02:38:11;12.07;;;8.63;;
26191;SDS011;13935;55.672;37.764;2023-08-07T02:39:14;13.02;;;9.43;;
26191;SDS011;13935;55.672;37.764;2023-08-07T02:40:17;10.68;;;8.80;;
26191;SDS011;13935;55.672;37.764;2023-08-07T02:41:20;11.80;;;8.55;;
26191;SDS011;13935;55.672;37.764;2023-08-07T02:42:22;11.80;;;8.95;;
26191;SDS011;13935;55.672;37.764;2023-08-07T02:43:24;11.52;;;9.23;;
26191;SDS011;13935;55.672;37.764;2023-08-07T02:44:27;11.77;;;9.02;;
26191;SDS011;13935;55.672;37.764;2023-08-07T02:45:34;11.40;;;8.35;;
26191;SDS011;13935;55.672;37.764;2023-08-07T02:46:37;9.55;;;8.50;;
26191;SDS011;13935;55.672;37.764;2023-08-07T02:47:39;13.10;;;8.57;;
26191;SDS011;13935;55.672;37.764;2023-08-07T02:48:43;10.68;;;8.18;;
26191;SDS011;13935;55.672;37.764;2023-08-07T02:49:46;9.55;;;8.43;;
26191;SDS011;13935;55.672;37.764;2023-08-07T02:50:48;14.93;;;8.27;;
26191;SDS011;13935;55.672;37.764;2023-08-07T02:51:52;15.52;;;9.27;;
26191;SDS011;13935;55.672;37.764;2023-08-07T02:52:54;10.55;;;8.63;;
26191;SDS011;13935;55.672;37.764;2023-08-07T02:53:56;9.25;;;8.30;;
26191;SDS011;13935;55.672;37.764;2023-08-07T02:54:58;11.38;;;8.27;;
26191;SDS011;13935;55.672;37.764;2023-08-07T02:56:00;10.35;;;8.00;;
26191;SDS011;13935;55.672;37.764;2023-08-07T02:57:02;11.57;;;7.97;;
26191;SDS011;13935;55.672;37.764;2023-08-07T02:58:04;12.95;;;8.15;;
26191;SDS011;13935;55.672;37.764;2023-08-07T02:59:06;10.85;;;8.18;;
26191;SDS011;13935;55.672;37.764;2023-08-07T03:00:09;9.95;;;8.38;;
26191;SDS011;13935;55.672;37.764;2023-08-07T03:01:12;13.32;;;8.55;;
26191;SDS011;13935;55.672;37.764;2023-08-07T03:02:15;12.75;;;8.18;;
26191;SDS011;13935;55.672;37.764;2023-08-07T03:03:17;14.20;;;7.85;;
26191;SDS011;13935;55.672;37.764;2023-08-07T03:04:19;9.68;;;7.00;;
26191;SDS011;13935;55.672;37.764;2023-08-07T03:05:21;12.13;;;7.63;;
26191;SDS011;13935;55.672;37.764;2023-08-07T03:06:23;8.75;;;7.82;;
26191;SDS011;13935;55.672;37.764;2023-08-07T03:07:25;8.98;;;7.10;;
26191;SDS011;13935;55.672;37.764;2023-08-07T03:08:27;11.02;;;7.82;;
26191;SDS011;13935;55.672;37.764;2023-08-07T03:09:29;12.60;;;7.60;;
26191;SDS011;13935;55.672;37.764;2023-08-07T03:10:31;11.73;;;7.57;;
26191;SDS011;13935;55.672;37.764;2023-08-07T03:11:33;8.40;;;7.25;;
26191;SDS011;13935;55.672;37.764;2023-08-07T03:12:35;8.30;;;7.22;;
26191;SDS011;13935;55.672;37.764;2023-08-07T03:13:40;10.13;;;7.45;;
26191;SDS011;13935;55.672;37.764;2023-08-07T03:14:43;11.07;;;7.53;;
26191;SDS011;13935;55.672;37.764;2023-08-07T03:15:45;13.20;;;7.50;;
26191;SDS011;13935;55.672;37.764;2023-08-07T03:16:48;11.75;;;6.88;;
26191;SDS011;13935;55.672;37.764;2023-08-07T03:17:50;9.27;;;7.28;;
26191;SDS011;13935;55.672;37.764;2023-08-07T03:18:52;9.52;;;6.95;;
26191;SDS011;13935;55.672;37.764;2023-08-07T03:19:54;9.45;;;7.20;;
26191;SDS011;13935;55.672;37.764;2023-08-07T03:20:56;10.55;;;7.60;;
26191;SDS011;13935;55.672;37.764;2023-08-07T03:21:59;10.93;;;7.15;;
26191;SDS011;13935;55.672;37.764;2023-08-07T03:23:01;14.48;;;7.50;;
26191;SDS011;13935;55.672;37.764;2023-08-07T03:24:03;10.05;;;7.30;;
26191;SDS011;13935;55.672;37.764;2023-08-07T03:25:05;9.10;;;7.22;;
26191;SDS011;13935;55.672;37.764;2023-08-07T03:26:08;14.25;;;7.68;;
26191;SDS011;13935;55.672;37.764;2023-08-07T03:27:21;11.23;;;7.43;;
26191;SDS011;13935;55.672;37.764;2023-08-07T03:28:24;9.63;;;6.95;;
26191;SDS011;13935;55.672;37.764;2023-08-07T03:29:26;11.23;;;7.00;;
26191;SDS011;13935;55.672;37.764;2023-08-07T03:30:28;12.23;;;7.22;;
26191;SDS011;13935;55.672;37.764;2023-08-07T03:31:30;9.18;;;7.32;;
26191;SDS011;13935;55.672;37.764;2023-08-07T03:32:33;10.07;;;7.47;;
26191;SDS011;13935;55.672;37.764;2023-08-07T03:33:35;11.23;;;7.75;;
26191;SDS011;13935;55.672;37.764;2023-08-07T03:34:37;13.40;;;8.20;;
26191;SDS011;13935;55.672;37.764;2023-08-07T03:35:40;11.32;;;7.18;;
26191;SDS011;13935;55.672;37.764;2023-08-07T03:36:44;9.38;;;7.32;;
26191;SDS011;13935;55.672;37.764;2023-08-07T03:37:46;14.90;;;7.38;;
26191;SDS011;13935;55.672;37.764;2023-08-07T03:38:48;11.82;;;7.88;;
26191;SDS011;13935;55.672;37.764;2023-08-07T03:39:52;10.13;;;7.22;;
26191;SDS011;13935;55.672;37.764;2023-08-07T03:40:54;9.30;;;7.25;;
26191;SDS011;13935;55.672;37.764;2023-08-07T03:41:56;10.15;;;7.55;;
26191;SDS011;13935;55.672;37.764;2023-08-07T03:42:59;10.50;;;7.10;;
26191;SDS011;13935;55.672;37.764;2023-08-07T03:44:01;9.05;;;7.75;;
26191;SDS011;13935;55.672;37.764;2023-08-07T03:45:03;11.05;;;8.27;;
26191;SDS011;13935;55.672;37.764;2023-08-07T03:46:05;10.57;;;7.60;;
26191;SDS011;13935;55.672;37.764;2023-08-07T03:47:07;12.82;;;7.65;;
26191;SDS011;13935;55.672;37.764;2023-08-07T03:48:09;11.27;;;7.25;;
26191;SDS011;13935;55.672;37.764;2023-08-07T03:49:11;13.20;;;7.78;;
26191;SDS011;13935;55.672;37.764;2023-08-07T03:50:14;10.82;;;8.30;;
26191;SDS011;13935;55.672;37.764;2023-08-07T03:51:16;8.45;;;7.47;;
26191;SDS011;13935;55.672;37.764;2023-08-07T03:52:21;15.20;;;7.78;;
26191;SDS011;13935;55.672;37.764;2023-08-07T03:53:23;10.38;;;7.50;;
26191;SDS011;13935;55.672;37.764;2023-08-07T03:54:26;10.40;;;7.97;;
26191;SDS011;13935;55.672;37.764;2023-08-07T03:55:28;8.45;;;7.45;;
26191;SDS011;13935;55.672;37.764;2023-08-07T03:56:30;11.07;;;7.95;;
26191;SDS011;13935;55.672;37.764;2023-08-07T03:57:38;9.07;;;7.55;;
26191;SDS011;13935;55.672;37.764;2023-08-07T03:58:41;13.43;;;8.23;;
26191;SDS011;13935;55.672;37.764;2023-08-07T03:59:43;13.13;;;9.00;;
26191;SDS011;13935;55.672;37.764;2023-08-07T04:00:48;12.73;;;7.75;;
26191;SDS011;13935;55.672;37.764;2023-08-07T04:01:53;12.05;;;7.72;;
26191;SDS011;13935;55.672;37.764;2023-08-07T04:02:55;10.85;;;7.88;;
26191;SDS011;13935;55.672;37.764;2023-08-07T04:03:57;12.80;;;7.80;;
26191;SDS011;13935;55.672;37.764;2023-08-07T04:05:00;12.60;;;7.80;;
26191;SDS011;13935;55.672;37.764;2023-08-07T04:06:04;11.00;;;7.72;;
26191;SDS011;13935;55.672;37.764;2023-08-07T04:07:07;9.75;;;7.53;;
26191;SDS011;13935;55.672;37.764;2023-08-07T04:08:09;15.32;;;8.73;;
26191;SDS011;13935;55.672;37.764;2023-08-07T04:09:12;14.60;;;9.82;;
26191;SDS011;13935;55.672;37.764;2023-08-07T04:10:14;14.13;;;7.50;;
26191;SDS011;13935;55.672;37.764;2023-08-07T04:11:16;9.77;;;7.60;;
26191;SDS011;13935;55.672;37.764;2023-08-07T04:12:18;12.45;;;7.65;;
26191;SDS011;13935;55.672;37.764;2023-08-07T04:13:20;13.27;;;7.57;;
26191;SDS011;13935;55.672;37.764;2023-08-07T04:14:22;13.45;;;7.13;;
26191;SDS011;13935;55.672;37.764;2023-08-07T04:15:24;16.08;;;7.55;;
26191;SDS011;13935;55.672;37.764;2023-08-07T04:16:28;11.98;;;7.35;;
26191;SDS011;13935;55.672;37.764;2023-08-07T04:17:31;10.60;;;7.68;;
26191;SDS011;13935;55.672;37.764;2023-08-07T04:18:33;10.55;;;7.28;;
26191;SDS011;13935;55.672;37.764;2023-08-07T04:19:36;12.85;;;7.38;;
26191;SDS011;13935;55.672;37.764;2023-08-07T04:20:38;10.88;;;7.50;;
26191;SDS011;13935;55.672;37.764;2023-08-07T04:21:40;13.75;;;7.85;;
26191;SDS011;13935;55.672;37.764;2023-08-07T04:22:43;15.15;;;7.75;;
26191;SDS011;13935;55.672;37.764;2023-08-07T04:23:46;11.00;;;7.43;;
26191;SDS011;13935;55.672;37.764;2023-08-07T04:24:48;12.02;;;7.57;;
26191;SDS011;13935;55.672;37.764;2023-08-07T04:25:50;14.52;;;9.40;;
26191;SDS011;13935;55.672;37.764;2023-08-07T04:26:53;14.45;;;7.70;;
26191;SDS011;13935;55.672;37.764;2023-08-07T04:27:55;13.57;;;7.45;;
26191;SDS011;13935;55.672;37.764;2023-08-07T04:28:57;15.48;;;7.40;;
26191;SDS011;13935;55.672;37.764;2023-08-07T04:29:59;14.60;;;7.38;;
26191;SDS011;13935;55.672;37.764;2023-08-07T04:31:01;9.93;;;7.10;;
26191;SDS011;13935;55.672;37.764;2023-08-07T04:32:04;12.75;;;6.80;;
26191;SDS011;13935;55.672;37.764;2023-08-07T04:33:07;11.10;;;7.65;;
26191;SDS011;13935;55.672;37.764;2023-08-07T04:34:09;9.60;;;6.60;;
26191;SDS011;13935;55.672;37.764;2023-08-07T04:35:15;10.35;;;6.97;;
26191;SDS011;13935;55.672;37.764;2023-08-07T04:36:17;12.73;;;7.43;;
26191;SDS011;13935;55.672;37.764;2023-08-07T04:37:19;11.07;;;6.72;;
26191;SDS011;13935;55.672;37.764;2023-08-07T04:38:21;12.50;;;6.80;;
26191;SDS011;13935;55.672;37.764;2023-08-07T04:39:24;14.80;;;6.57;;
26191;SDS011;13935;55.672;37.764;2023-08-07T04:40:26;12.10;;;6.03;;
26191;SDS011;13935;55.672;37.764;2023-08-07T04:41:31;8.80;;;6.03;;
26191;SDS011;13935;55.672;37.764;2023-08-07T04:42:33;12.23;;;6.57;;
26191;SDS011;13935;55.672;37.764;2023-08-07T04:43:35;12.90;;;6.55;;
26191;SDS011;13935;55.672;37.764;2023-08-07T04:44:37;11.27;;;6.45;;
26191;SDS011;13935;55.672;37.764;2023-08-07T04:45:40;11.00;;;6.38;;
26191;SDS011;13935;55.672;37.764;2023-08-07T04:46:42;11.18;;;6.50;;
26191;SDS011;13935;55.672;37.764;2023-08-07T04:47:44;11.85;;;6.50;;
26191;SDS011;13935;55.672;37.764;2023-08-07T04:48:46;11.70;;;6.50;;
26191;SDS011;13935;55.672;37.764;2023-08-07T04:49:49;10.70;;;7.43;;
26191;SDS011;13935;55.672;37.764;2023-08-07T04:50:52;9.32;;;7.22;;
26191;SDS011;13935;55.672;37.764;2023-08-07T04:51:55;10.15;;;6.63;;
26191;SDS011;13935;55.672;37.764;2023-08-07T04:52:56;10.55;;;6.80;;
26191;SDS011;13935;55.672;37.764;2023-08-07T04:53:58;6.90;;;6.03;;
26191;SDS011;13935;55.672;37.764;2023-08-07T04:55:00;8.43;;;6.82;;
26191;SDS011;13935;55.672;37.764;2023-08-07T04:56:03;9.38;;;6.10;;
26191;SDS011;13935;55.672;37.764;2023-08-07T04:57:05;12.27;;;6.30;;
26191;SDS011;13935;55.672;37.764;2023-08-07T04:58:07;9.68;;;6.30;;
26191;SDS011;13935;55.672;37.764;2023-08-07T04:59:09;12.07;;;6.50;;
26191;SDS011;13935;55.672;37.764;2023-08-07T05:00:11;9.15;;;6.57;;
26191;SDS011;13935;55.672;37.764;2023-08-07T05:01:15;10.88;;;6.43;;
26191;SDS011;13935;55.672;37.764;2023-08-07T05:02:17;8.32;;;5.70;;
26191;SDS011;13935;55.672;37.764;2023-08-07T05:03:19;8.70;;;6.05;;
26191;SDS011;13935;55.672;37.764;2023-08-07T05:04:22;11.23;;;5.93;;
26191;SDS011;13935;55.672;37.764;2023-08-07T05:05:24;8.52;;;5.57;;
26191;SDS011;13935;55.672;37.764;2023-08-07T05:06:25;8.40;;;5.95;;
26191;SDS011;13935;55.672;37.764;2023-08-07T05:07:27;11.15;;;5.95;;
26191;SDS011;13935;55.672;37.764;2023-08-07T05:08:31;10.90;;;6.03;;
26191;SDS011;13935;55.672;37.764;2023-08-07T05:09:34;11.68;;;6.03;;
26191;SDS011;13935;55.672;37.764;2023-08-07T05:10:36;6.75;;;5.60;;
26191;SDS011;13935;55.672;37.764;2023-08-07T05:11:38;8.82;;;5.53;;
26191;SDS011;13935;55.672;37.764;2023-08-07T05:12:40;17.50;;;10.20;;
26191;SDS011;13935;55.672;37.764;2023-08-07T05:13:42;15.85;;;10.63;;
26191;SDS011;13935;55.672;37.764;2023-08-07T05:14:44;9.93;;;6.32;;
26191;SDS011;13935;55.672;37.764;2023-08-07T05:15:47;13.07;;;5.78;;
26191;SDS011;13935;55.672;37.764;2023-08-07T05:16:50;7.60;;;5.68;;
26191;SDS011;13935;55.672;37.764;2023-08-07T05:17:52;10.32;;;5.43;;
26191;SDS011;13935;55.672;37.764;2023-08-07T05:18:54;10.57;;;5.63;;
26191;SDS011;13935;55.672;37.764;2023-08-07T05:19:56;8.27;;;6.25;;
26191;SDS011;13935;55.672;37.764;2023-08-07T05:21:04;12.25;;;6.03;;
26191;SDS011;13935;55.672;37.764;2023-08-07T05:22:08;9.77;;;5.78;;
26191;SDS011;13935;55.672;37.764;2023-08-07T05:23:10;10.48;;;6.10;;
26191;SDS011;13935;55.672;37.764;2023-08-07T05:24:13;11.18;;;5.82;;
26191;SDS011;13935;55.672;37.764;2023-08-07T05:25:16;8.40;;;5.30;;
26191;SDS011;13935;55.672;37.764;2023-08-07T05:26:19;7.20;;;5.60;;
26191;SDS011;13935;55.672;37.764;2023-08-07T05:27:21;10.07;;;5.82;;
26191;SDS011;13935;55.672;37.764;2023-08-07T05:28:22;10.05;;;7.40;;
26191;SDS011;13935;55.672;37.764;2023-08-07T05:29:24;7.65;;;5.60;;
26191;SDS011;13935;55.672;37.764;2023-08-07T05:30:27;10.13;;;5.50;;
26191;SDS011;13935;55.672;37.764;2023-08-07T05:31:29;9.25;;;5.13;;
26191;SDS011;13935;55.672;37.764;2023-08-07T05:32:32;10.40;;;5.60;;
26191;SDS011;13935;55.672;37.764;2023-08-07T05:33:34;11.05;;;5.57;;
26191;SDS011;13935;55.672;37.764;2023-08-07T05:34:36;8.88;;;5.15;;
26191;SDS011;13935;55.672;37.764;2023-08-07T05:35:40;7.28;;;4.97;;
26191;SDS011;13935;55.672;37.764;2023-08-07T05:36:42;10.38;;;5.60;;
26191;SDS011;13935;55.672;37.764;2023-08-07T05:37:44;11.93;;;5.03;;
26191;SDS011;13935;55.672;37.764;2023-08-07T05:38:46;9.88;;;5.30;;
26191;SDS011;13935;55.672;37.764;2023-08-07T05:39:48;10.18;;;5.25;;
26191;SDS011;13935;55.672;37.764;2023-08-07T05:40:51;13.10;;;5.28;;
26191;SDS011;13935;55.672;37.764;2023-08-07T05:41:53;11.15;;;5.40;;
26191;SDS011;13935;55.672;37.764;2023-08-07T05:42:58;9.07;;;5.07;;
26191;SDS011;13935;55.672;37.764;2023-08-07T05:44:00;11.38;;;8.90;;
26191;SDS011;13935;55.672;37.764;2023-08-07T05:45:02;13.60;;;8.77;;
26191;SDS011;13935;55.672;37.764;2023-08-07T05:46:06;15.20;;;9.85;;
26191;SDS011;13935;55.672;37.764;2023-08-07T05:47:08;8.77;;;4.65;;
26191;SDS011;13935;55.672;37.764;2023-08-07T05:48:10;7.18;;;4.80;;
26191;SDS011;13935;55.672;37.764;2023-08-07T05:49:12;11.35;;;4.80;;
26191;SDS011;13935;55.672;37.764;2023-08-07T05:50:16;8.68;;;4.70;;
26191;SDS011;13935;55.672;37.764;2023-08-07T05:51:18;10.30;;;4.90;;
26191;SDS011;13935;55.672;37.764;2023-08-07T05:52:21;7.38;;;4.80;;
26191;SDS011;13935;55.672;37.764;2023-08-07T05:53:23;7.63;;;5.03;;
26191;SDS011;13935;55.672;37.764;2023-08-07T05:54:25;9.50;;;4.75;;
26191;SDS011;13935;55.672;37.764;2023-08-07T05:55:27;7.88;;;5.30;;
26191;SDS011;13935;55.672;37.764;2023-08-07T05:56:29;10.73;;;5.10;;
26191;SDS011;13935;55.672;37.764;2023-08-07T05:57:33;8.98;;;4.80;;
26191;SDS011;13935;55.672;37.764;2023-08-07T05:58:35;8.85;;;5.00;;
26191;SDS011;13935;55.672;37.764;2023-08-07T05:59:37;11.93;;;4.90;;
26191;SDS011;13935;55.672;37.764;2023-08-07T06:00:43;7.35;;;4.95;;
26191;SDS011;13935;55.672;37.764;2023-08-07T06:01:45;11.07;;;5.28;;
26191;SDS011;13935;55.672;37.764;2023-08-07T06:02:47;9.30;;;4.95;;
26191;SDS011;13935;55.672;37.764;2023-08-07T06:03:49;13.27;;;5.38;;
26191;SDS011;13935;55.672;37.764;2023-08-07T06:04:51;9.60;;;4.90;;
26191;SDS011;13935;55.672;37.764;2023-08-07T06:05:54;10.90;;;5.18;;
26191;SDS011;13935;55.672;37.764;2023-08-07T06:06:56;8.05;;;4.38;;
26191;SDS011;13935;55.672;37.764;2023-08-07T06:07:58;12.65;;;5.00;;
26191;SDS011;13935;55.672;37.764;2023-08-07T06:09:00;10.27;;;5.00;;
26191;SDS011;13935;55.672;37.764;2023-08-07T06:10:03;9.00;;;4.82;;
26191;SDS011;13935;55.672;37.764;2023-08-07T06:11:06;11.65;;;5.25;;
26191;SDS011;13935;55.672;37.764;2023-08-07T06:12:09;7.95;;;5.28;;
26191;SDS011;13935;55.672;37.764;2023-08-07T06:13:11;6.50;;;4.65;;